Time;durP1;ratioP1;P1;durP2;ratioP2;P2;SDS_P1;SDS_P2;PMS_P1;PMS_P2;Temp;Humidity;BMP_temperature;BMP_pressure;BME280_temperature;BME280_humidity;BME280_pressure;Samples;Min_cycle;Max_cycle;Signal;HPM_P1;HPM_P2
2023/04/12 00:02:08;;;;;;;12.25;3.28;;;;;;;10.39;95.55;99008.94;10415279;28;20038;-80
2023/04/12 00:07:09;;;;;;;9.93;2.80;;;;;;;10.54;95.44;99059.22;10395778;28;20481;-80
2023/04/12 00:12:10;;;;;;;12.98;2.50;;;;;;;10.40;95.17;99048.53;10374448;28;20052;-80
2023/04/12 00:17:11;;;;;;;8.98;2.83;;;;;;;10.48;95.23;99066.94;10374738;28;20501;-80
2023/04/12 00:22:12;;;;;;;9.02;2.35;;;;;;;10.26;95.53;99054.75;10374291;28;20133;-80
2023/04/12 00:27:15;;;;;;;14.57;3.20;;;;;;;10.12;95.79;99039.81;10374022;28;20128;-80
2023/04/12 00:32:16;;;;;;;12.10;3.00;;;;;;;10.19;95.63;99053.94;10373084;28;20049;-80
2023/04/12 00:37:16;;;;;;;8.00;2.67;;;;;;;9.60;95.96;98999.53;10374045;28;20510;-79
2023/04/12 00:42:17;;;;;;;22.98;3.25;;;;;;;9.81;96.74;99038.41;10373332;28;20163;-81
2023/04/12 00:47:18;;;;;;;11.55;2.75;;;;;;;9.83;96.94;99055.78;10372932;28;20046;-79
2023/04/12 00:52:21;;;;;;;17.00;2.65;;;;;;;9.98;96.71;99076.88;10372756;28;20042;-82
2023/04/12 00:57:22;;;;;;;14.38;2.97;;;;;;;9.58;96.69;99026.25;10372578;28;20509;-80
2023/04/12 01:02:23;;;;;;;11.57;3.38;;;;;;;9.18;96.31;98966.00;10372688;28;20041;-80
2023/04/12 01:07:43;;;;;;;19.83;4.50;;;;;;;9.82;98.40;99087.81;10373327;28;20054;-80
2023/04/12 01:13:07;;;;;;;14.60;2.78;;;;;;;9.72;98.99;99068.75;10371002;28;20063;-79
2023/04/12 01:18:13;;;;;;;7.40;2.67;;;;;;;9.57;97.53;99040.53;10379020;28;20044;-79
2023/04/12 01:24:00;;;;;;;7.03;1.85;;;;;;;9.77;97.87;99064.50;10380825;28;20081;-80
2023/04/12 01:29:05;;;;;;;9.40;3.03;;;;;;;9.45;96.44;99059.78;10399520;28;20040;-80
2023/04/12 01:34:10;;;;;;;9.02;3.22;;;;;;;9.55;97.04;99060.28;10394577;28;20105;-80
2023/04/12 01:39:11;;;;;;;8.57;3.00;;;;;;;9.48;96.60;99017.81;10372085;28;20041;-80
2023/04/12 01:44:13;;;;;;;10.68;2.97;;;;;;;9.80;96.89;99053.50;10370474;28;20088;-80
2023/04/12 01:49:47;;;;;;;8.38;2.08;;;;;;;10.03;97.99;99041.81;10406494;28;20073;-80
2023/04/12 01:54:53;;;;;;;7.40;2.78;;;;;;;10.22;96.62;99051.69;10412874;28;20041;-80
2023/04/12 01:59:57;;;;;;;7.78;2.78;;;;;;;10.34;96.55;99053.81;10410975;28;20076;-79
2023/04/12 02:05:00;;;;;;;9.93;2.65;;;;;;;10.41;96.30;99049.34;10411575;28;20033;-80
2023/04/12 02:10:00;;;;;;;13.15;3.00;;;;;;;10.32;96.26;99014.22;10418498;28;20458;-85
2023/04/12 02:15:03;;;;;;;8.60;2.70;;;;;;;10.46;96.60;99031.00;10389600;28;20069;-78
2023/04/12 02:20:10;;;;;;;19.95;6.85;;;;;;;9.99;96.85;98940.59;10387753;28;20084;-78
2023/04/12 02:25:12;;;;;;;8.93;3.00;;;;;;;10.15;96.83;98965.13;10385989;28;20128;-79
2023/04/12 02:30:13;;;;;;;12.85;3.13;;;;;;;10.54;96.74;99012.25;10419768;28;20868;-78
2023/04/12 02:35:17;;;;;;;11.20;3.53;;;;;;;10.56;97.47;98988.97;10419631;28;20500;-78
2023/04/12 02:40:18;;;;;;;10.10;3.08;;;;;;;10.58;97.13;98988.75;10418696;28;20048;-78
2023/04/12 02:45:19;;;;;;;10.77;3.40;;;;;;;10.63;97.50;98991.63;10418929;28;20053;-80
2023/04/12 02:50:19;;;;;;;8.38;3.28;;;;;;;10.12;97.79;98892.03;10418547;28;20452;-81
2023/04/12 02:55:20;;;;;;;10.43;3.42;;;;;;;10.76;97.98;98982.84;10418044;28;20037;-83
2023/04/12 03:00:22;;;;;;;7.30;3.10;;;;;;;10.51;97.89;98925.03;10417879;28;20067;-78
2023/04/12 03:05:23;;;;;;;14.20;2.92;;;;;;;10.94;97.86;98988.38;10415966;28;20045;-78
2023/04/12 03:10:24;;;;;;;12.07;3.38;;;;;;;10.98;97.91;98976.34;10413840;28;20083;-78
2023/04/12 03:15:26;;;;;;;17.38;3.35;;;;;;;10.61;97.73;98911.34;10414366;28;20060;-76
2023/04/12 03:20:28;;;;;;;17.67;2.95;;;;;;;10.99;97.91;98967.34;10404544;28;20190;-75
2023/04/12 03:25:29;;;;;;;12.20;2.97;;;;;;;11.15;97.99;98974.09;10458010;28;20045;-79
2023/04/12 03:30:29;;;;;;;15.40;3.60;;;;;;;11.31;97.83;98976.34;10458144;28;20044;-75
2023/04/12 03:35:30;;;;;;;11.88;3.35;;;;;;;11.08;97.57;98928.09;10457420;28;20044;-73
2023/04/12 03:40:31;;;;;;;13.98;2.85;;;;;;;11.45;97.34;98973.66;10404049;28;20124;-80
2023/04/12 03:45:32;;;;;;;9.80;2.85;;;;;;;11.51;97.57;98978.94;10376195;28;20493;-81
2023/04/12 03:50:40;;;;;;;8.70;2.75;;;;;;;11.61;97.06;98967.91;10374994;28;20135;-77
2023/04/12 03:55:42;;;;;;;12.20;2.88;;;;;;;11.51;96.86;98935.59;10374219;28;20042;-79
2023/04/12 04:00:43;;;;;;;19.25;3.40;;;;;;;11.45;95.91;98891.22;10372081;28;20091;-77
2023/04/12 04:05:44;;;;;;;9.75;2.47;;;;;;;11.83;96.28;98941.84;10372134;28;20041;-76
2023/04/12 04:10:45;;;;;;;12.85;2.88;;;;;;;11.74;96.12;98901.34;10373109;28;20065;-74
2023/04/12 04:15:48;;;;;;;23.20;2.95;;;;;;;11.85;95.85;98910.56;10373847;28;20042;-79
2023/04/12 04:20:49;;;;;;;8.75;2.63;;;;;;;12.08;95.45;98931.31;10373924;28;20033;-75
2023/04/12 04:25:52;;;;;;;11.23;2.95;;;;;;;11.79;95.55;98869.63;10369646;28;20049;-76
2023/04/12 04:30:54;;;;;;;16.80;2.72;;;;;;;12.56;95.04;98952.13;10413735;28;20045;-78
2023/04/12 04:35:55;;;;;;;8.27;2.60;;;;;;;12.54;94.73;98859.13;10415203;28;20045;-78
2023/04/12 04:40:57;;;;;;;17.45;2.63;;;;;;;13.32;93.16;98942.38;10413911;28;20044;-74
2023/04/12 04:45:58;;;;;;;11.18;3.03;;;;;;;13.48;92.87;98926.59;10379917;28;20051;-71
2023/04/12 04:51:00;;;;;;;24.90;3.15;;;;;;;13.82;92.30;98945.72;10391076;28;20042;-77
2023/04/12 04:56:01;;;;;;;15.35;3.15;;;;;;;14.37;90.66;98955.50;10374055;28;20406;-76
2023/04/12 05:01:04;;;;;;;9.60;3.20;;;;;;;14.68;89.27;98967.03;10372851;28;20037;-77
2023/04/12 05:06:05;;;;;;;10.05;3.03;;;;;;;14.43;88.58;98911.84;10372394;28;20052;-77
2023/04/12 05:11:06;;;;;;;11.32;2.67;;;;;;;14.51;87.31;98932.94;10372981;28;20065;-78
2023/04/12 05:16:07;;;;;;;10.52;2.65;;;;;;;14.84;86.24;98979.75;10373190;28;20418;-77
2023/04/12 05:21:08;;;;;;;15.18;3.30;;;;;;;15.00;85.04;98957.69;10372639;28;20045;-77
2023/04/12 05:26:09;;;;;;;12.35;3.22;;;;;;;15.32;83.23;98961.91;10371948;28;20504;-77
2023/04/12 05:31:12;;;;;;;9.32;2.67;;;;;;;15.27;80.55;98914.44;10372033;28;20456;-77
2023/04/12 05:36:13;;;;;;;9.93;2.65;;;;;;;15.78;80.71;98954.91;10371663;28;20095;-76
2023/04/12 05:41:13;;;;;;;12.02;2.70;;;;;;;15.72;79.91;98965.50;10373671;28;20128;-77
2023/04/12 05:46:15;;;;;;;15.35;2.85;;;;;;;15.79;79.15;98973.41;10379845;28;20046;-77
2023/04/12 05:51:15;;;;;;;16.63;2.97;;;;;;;15.90;77.91;98972.56;10379392;28;20120;-76
2023/04/12 05:56:16;;;;;;;14.40;2.85;;;;;;;15.92;76.79;98970.47;10379420;28;20104;-78
2023/04/12 06:01:18;;;;;;;11.52;3.15;;;;;;;16.07;76.30;99006.66;10380534;28;20379;-77
2023/04/12 06:06:19;;;;;;;16.92;3.25;;;;;;;16.13;75.99;98998.50;10379529;28;20072;-78
2023/04/12 06:11:20;;;;;;;9.88;2.53;;;;;;;16.01;75.63;98989.66;10379763;28;20065;-77
2023/04/12 06:16:21;;;;;;;10.82;2.80;;;;;;;15.83;75.85;98971.91;10378680;28;20046;-77
2023/04/12 06:21:23;;;;;;;11.77;3.17;;;;;;;15.50;75.69;98949.22;10379253;28;20037;-78
2023/04/12 06:26:24;;;;;;;7.38;2.60;;;;;;;15.76;75.06;98984.56;10378705;28;20088;-78
2023/04/12 06:31:25;;;;;;;9.50;2.53;;;;;;;15.95;75.08;99001.34;10377882;28;20387;-77
2023/04/12 06:36:25;;;;;;;9.95;3.42;;;;;;;15.98;74.47;99003.53;10377705;28;20045;-77
2023/04/12 06:41:26;;;;;;;8.13;2.75;;;;;;;15.67;74.32;98927.06;10378054;28;20045;-77
2023/04/12 06:46:28;;;;;;;17.33;4.50;;;;;;;15.87;74.30;98967.69;10398417;28;20255;-77
2023/04/12 06:51:30;;;;;;;13.75;2.80;;;;;;;15.93;74.47;98976.63;10418587;28;20131;-77
2023/04/12 06:56:30;;;;;;;10.90;3.28;;;;;;;16.08;74.28;98990.34;10417251;28;20686;-77
2023/04/12 07:01:31;;;;;;;10.02;3.03;;;;;;;16.36;73.83;98986.06;10417723;28;20124;-77
2023/04/12 07:06:32;;;;;;;9.43;3.15;;;;;;;16.44;73.02;98999.09;10418451;28;20034;-77
2023/04/12 07:11:33;;;;;;;13.18;2.95;;;;;;;16.44;73.23;98983.81;10418301;28;20494;-77
2023/04/12 07:16:34;;;;;;;14.15;3.97;;;;;;;16.41;73.12;98956.69;10417221;28;20037;-77
2023/04/12 07:21:35;;;;;;;8.95;3.10;;;;;;;16.74;72.27;98966.66;10417482;28;20041;-77
2023/04/12 07:26:36;;;;;;;14.75;3.03;;;;;;;16.88;71.69;98972.56;10417338;28;20122;-77
2023/04/12 07:31:36;;;;;;;15.05;2.72;;;;;;;17.03;71.16;98970.13;10416951;28;20452;-77
2023/04/12 07:36:37;;;;;;;9.48;3.15;;;;;;;17.41;70.24;98957.84;10416999;28;20041;-78
2023/04/12 07:41:38;;;;;;;10.93;2.97;;;;;;;17.06;69.04;98881.09;10416328;28;20043;-76
2023/04/12 07:46:40;;;;;;;12.88;3.47;;;;;;;17.56;68.67;98944.63;10416788;28;20136;-78
2023/04/12 07:51:41;;;;;;;14.05;3.03;;;;;;;17.87;67.69;98947.72;10416982;28;20045;-76
2023/04/12 07:56:57;;;;;;;9.48;2.17;;;;;;;18.14;66.73;98933.53;10415617;28;20120;-77
2023/04/12 08:01:57;;;;;;;8.95;2.58;;;;;;;18.17;66.71;98919.59;10415854;28;20037;-76
2023/04/12 08:06:58;;;;;;;9.05;1.95;;;;;;;18.16;66.52;98918.00;10414962;28;20128;-75
2023/04/12 08:12:00;;;;;;;13.02;2.88;;;;;;;18.22;65.86;98895.47;10415104;28;20045;-77
2023/04/12 08:17:01;;;;;;;11.85;2.63;;;;;;;18.36;65.49;98890.50;10415744;28;20053;-77
2023/04/12 08:22:02;;;;;;;8.50;2.30;;;;;;;18.30;65.20;98880.75;10415298;28;20041;-77
2023/04/12 08:27:02;;;;;;;15.15;2.58;;;;;;;18.00;64.69;98834.50;10414416;28;20087;-77
2023/04/12 08:32:04;;;;;;;12.18;2.58;;;;;;;18.73;63.72;98860.16;10414974;28;20068;-77
2023/04/12 08:37:04;;;;;;;6.75;1.88;;;;;;;18.90;62.94;98847.38;10414330;28;20052;-77
2023/04/12 08:42:06;;;;;;;9.68;4.15;;;;;;;18.88;63.01;98854.94;10413917;28;20049;-77
2023/04/12 08:47:08;;;;;;;7.60;2.63;;;;;;;19.13;62.80;98847.00;10413753;28;20041;-77
2023/04/12 08:52:10;;;;;;;8.15;2.20;;;;;;;18.87;62.44;98827.19;10413764;28;20052;-77
2023/04/12 08:57:12;;;;;;;7.72;2.47;;;;;;;19.25;61.64;98805.59;10414384;28;20045;-76
2023/04/12 09:02:13;;;;;;;13.27;2.40;;;;;;;19.18;61.67;98818.50;10413934;28;20406;-76
2023/04/12 09:07:14;;;;;;;9.00;3.00;;;;;;;18.86;61.46;98728.72;10413108;28;20111;-78
2023/04/12 09:12:18;;;;;;;8.35;1.92;;;;;;;19.32;60.54;98741.53;10413756;28;20487;-79
2023/04/12 09:17:25;;;;;;;11.80;2.70;;;;;;;19.78;59.59;98752.47;10413840;28;20136;-78
2023/04/12 09:22:37;;;;;;;7.15;1.98;;;;;;;19.62;59.95;98711.19;10413123;28;20079;-78
2023/04/12 09:27:49;;;;;;;9.77;3.58;;;;;;;20.19;59.11;98712.06;10412939;28;20046;-79
2023/04/12 09:32:49;;;;;;;17.90;3.20;;;;;;;20.36;58.86;98676.72;10413404;28;20120;-76
2023/04/12 09:37:57;;;;;;;9.88;2.58;;;;;;;20.91;56.51;98677.66;10412547;28;20137;-78
2023/04/12 09:42:58;;;;;;;9.77;3.25;;;;;;;20.41;57.34;98615.50;10412997;28;20095;-77
2023/04/12 09:47:59;;;;;;;11.35;4.45;;;;;;;20.61;57.92;98746.03;10412735;28;20115;-78
2023/04/12 09:53:01;;;;;;;8.80;2.65;;;;;;;20.09;57.51;98663.56;10412216;28;20045;-79
2023/04/12 09:58:03;;;;;;;13.10;3.20;;;;;;;20.16;57.67;98688.34;10412602;28;20045;-79
2023/04/12 10:03:05;;;;;;;7.45;2.70;;;;;;;20.46;57.57;98774.63;10411979;28;20531;-78
2023/04/12 10:08:06;;;;;;;9.77;2.40;;;;;;;20.00;57.97;98726.09;10412682;28;20057;-78
2023/04/12 10:13:10;;;;;;;14.55;2.92;;;;;;;19.73;57.77;98674.34;10412482;28;20154;-78
2023/04/12 10:18:13;;;;;;;12.98;3.55;;;;;;;20.41;57.43;98723.38;10411480;28;20111;-78
2023/04/12 10:23:15;;;;;;;15.73;4.40;;;;;;;20.79;57.02;98687.97;10412347;28;20041;-78
2023/04/12 10:28:20;;;;;;;7.88;2.22;;;;;;;21.00;56.17;98716.50;10407118;28;20072;-78
2023/04/12 10:33:25;;;;;;;11.00;3.38;;;;;;;21.14;56.09;98697.81;10398142;28;20045;-78
2023/04/12 10:38:30;;;;;;;9.02;2.85;;;;;;;20.66;55.99;98613.81;10387234;28;20183;-78
2023/04/12 10:43:30;;;;;;;8.98;3.05;;;;;;;21.31;55.56;98692.88;10385483;28;20077;-77
2023/04/12 10:48:32;;;;;;;9.13;2.80;;;;;;;21.38;55.38;98701.50;10393639;28;20087;-78
2023/04/12 10:53:33;;;;;;;10.57;4.07;;;;;;;21.51;55.06;98678.47;10400647;28;20057;-78
2023/04/12 10:58:54;;;;;;;9.90;3.03;;;;;;;21.85;53.89;98689.28;10376053;28;20533;-78
2023/04/12 11:04:07;;;;;;;11.07;2.50;;;;;;;22.15;53.20;98719.88;10409100;28;20545;-78
2023/04/12 11:09:28;;;;;;;13.47;3.20;;;;;;;22.34;53.56;98734.31;10412143;28;20061;-78
2023/04/12 11:14:32;;;;;;;9.25;3.03;;;;;;;22.30;52.46;98724.38;10414747;28;20049;-77
2023/04/12 11:19:41;;;;;;;8.05;2.78;;;;;;;22.47;52.22;98726.66;10413022;28;20037;-78
2023/04/12 11:24:44;;;;;;;6.45;2.85;;;;;;;22.39;52.31;98724.56;10412827;28;20041;-78
2023/04/12 11:29:49;;;;;;;12.90;2.92;;;;;;;22.07;52.73;98726.69;10412299;28;20438;-77
2023/04/12 11:34:50;;;;;;;9.85;2.53;;;;;;;21.37;53.56;98645.88;10410157;28;20038;-77
2023/04/12 11:39:53;;;;;;;13.13;3.25;;;;;;;20.92;54.09;98623.41;10411842;28;20034;-76
2023/04/12 11:44:54;;;;;;;9.27;2.37;;;;;;;21.19;54.58;98692.41;10405661;28;20727;-79
2023/04/12 11:49:57;;;;;;;6.15;2.58;;;;;;;20.86;54.46;98616.44;10411175;28;20069;-77
2023/04/12 11:55:05;;;;;;;13.88;3.40;;;;;;;21.65;53.90;98702.94;10410060;28;20040;-76
2023/04/12 12:00:07;;;;;;;27.60;4.30;;;;;;;20.68;54.64;98552.31;10411142;28;20374;-78
2023/04/12 12:05:08;;;;;;;14.32;2.78;;;;;;;21.72;53.96;98684.53;10411321;28;20037;-77
2023/04/12 12:10:09;;;;;;;4.78;2.00;;;;;;;22.21;52.94;98667.38;10400446;28;20068;-78
2023/04/12 12:15:10;;;;;;;13.13;3.13;;;;;;;21.96;52.85;98627.03;10407366;28;20052;-77
2023/04/12 12:20:20;;;;;;;9.30;2.08;;;;;;;22.07;52.90;98625.84;10406980;28;20057;-78
2023/04/12 12:25:22;;;;;;;6.82;2.70;;;;;;;22.46;52.46;98654.69;10404451;28;20041;-77
2023/04/12 12:30:23;;;;;;;8.23;2.50;;;;;;;22.42;52.70;98648.25;10394167;28;20208;-76
2023/04/12 12:35:25;;;;;;;11.35;4.55;;;;;;;22.37;52.49;98634.75;10388362;28;20094;-75
2023/04/12 12:40:31;;;;;;;11.88;2.75;;;;;;;22.29;52.57;98650.53;10389156;28;20498;-76
2023/04/12 12:45:32;;;;;;;19.42;5.50;;;;;;;22.01;53.06;98633.19;10385239;28;20437;-77
2023/04/12 12:50:35;;;;;;;8.68;2.45;;;;;;;22.14;53.00;98639.84;10395350;28;20505;-77
2023/04/12 12:55:36;;;;;;;15.30;6.25;;;;;;;21.94;52.86;98608.38;10395316;28;20124;-77
2023/04/12 13:00:36;;;;;;;10.88;2.55;;;;;;;21.49;53.40;98571.78;10373196;28;20171;-76
2023/04/12 13:05:37;;;;;;;16.73;2.85;;;;;;;21.74;53.61;98625.59;10390330;28;20455;-76
2023/04/12 13:10:38;;;;;;;7.97;2.40;;;;;;;21.67;54.14;98614.31;10413958;28;20404;-77
2023/04/12 13:15:40;;;;;;;11.18;2.53;;;;;;;21.73;54.13;98615.88;10412766;28;20092;-76
2023/04/12 13:20:42;;;;;;;20.05;5.03;;;;;;;21.22;54.37;98551.41;10384268;28;20046;-76
2023/04/12 13:25:42;;;;;;;17.23;5.70;;;;;;;21.36;54.75;98590.25;10372461;28;20140;-76
2023/04/12 13:30:43;;;;;;;85.20;34.17;;;;;;;21.12;55.07;98573.06;10371966;28;20048;-77
2023/04/12 13:35:44;;;;;;;22.92;7.60;;;;;;;21.14;55.51;98589.81;10371758;28;20042;-77
2023/04/12 13:40:45;;;;;;;62.08;28.00;;;;;;;20.74;55.56;98535.78;10371610;28;20107;-77
2023/04/12 13:45:46;;;;;;;12.55;5.50;;;;;;;21.22;55.94;98608.13;10373027;28;20057;-77
2023/04/12 13:50:47;;;;;;;17.90;4.15;;;;;;;21.22;55.49;98615.41;10372404;28;20049;-76
2023/04/12 13:55:48;;;;;;;32.17;21.50;;;;;;;20.95;55.58;98587.75;10377168;28;20137;-82
2023/04/12 14:00:49;;;;;;;13.65;5.60;;;;;;;21.03;56.12;98599.03;10400679;28;20421;-78
2023/04/12 14:05:51;;;;;;;10.65;3.20;;;;;;;20.54;56.58;98556.69;10407291;28;20041;-77
2023/04/12 14:10:53;;;;;;;9.27;2.92;;;;;;;20.25;57.10;98533.03;10397254;28;20477;-78
2023/04/12 14:15:55;;;;;;;12.02;3.80;;;;;;;20.12;57.78;98558.69;10392083;28;20042;-79
2023/04/12 14:20:58;;;;;;;13.63;6.78;;;;;;;20.41;58.04;98585.03;10387066;28;20042;-77
2023/04/12 14:25:58;;;;;;;11.00;3.10;;;;;;;20.40;58.43;98600.41;10378383;28;20053;-78
2023/04/12 14:31:00;;;;;;;10.38;2.72;;;;;;;20.34;58.76;98615.00;10392717;28;20049;-77
2023/04/12 14:36:03;;;;;;;13.90;2.60;;;;;;;19.95;58.66;98558.19;10378629;28;20048;-79
2023/04/12 14:41:08;;;;;;;6.13;2.92;;;;;;;20.15;58.71;98592.38;10409483;28;20468;-76
2023/04/12 14:46:10;;;;;;;19.95;7.15;;;;;;;20.02;59.26;98572.19;10418404;28;20037;-77
2023/04/12 14:51:11;;;;;;;29.73;10.88;;;;;;;19.96;59.51;98563.31;10418689;28;20164;-77
2023/04/12 14:56:20;;;;;;;75.57;28.15;;;;;;;19.93;60.41;98558.47;10418248;28;20124;-77
2023/04/12 15:01:22;;;;;;;18.92;7.35;;;;;;;19.92;60.01;98548.75;10385223;28;20494;-76
2023/04/12 15:06:25;;;;;;;30.15;11.02;;;;;;;19.86;60.13;98544.44;10377819;28;20073;-77
2023/04/12 15:11:26;;;;;;;25.08;8.05;;;;;;;19.52;60.39;98485.75;10375898;28;20062;-78
2023/04/12 15:16:27;;;;;;;46.80;14.52;;;;;;;19.32;60.97;98475.00;10375723;28;20038;-77
2023/04/12 15:21:28;;;;;;;47.08;13.85;;;;;;;19.73;61.46;98562.00;10375184;28;20045;-77
2023/04/12 15:26:29;;;;;;;34.97;9.30;;;;;;;19.58;61.89;98565.47;10377488;28;20045;-77
2023/04/12 15:31:31;;;;;;;55.63;16.15;;;;;;;18.95;62.37;98521.84;10375476;28;20042;-78
2023/04/12 15:36:42;;;;;;;32.33;8.20;;;;;;;19.00;63.09;98570.28;10374856;28;20030;-78
2023/04/12 15:41:43;;;;;;;45.40;10.90;;;;;;;18.83;63.55;98583.16;10407496;28;20049;-78
2023/04/12 15:46:45;;;;;;;41.72;10.93;;;;;;;18.64;64.28;98599.75;10414773;28;20402;-78
2023/04/12 15:51:46;;;;;;;28.92;8.85;;;;;;;18.26;64.93;98579.41;10416119;28;20041;-78
2023/04/12 15:56:47;;;;;;;48.33;12.52;;;;;;;17.60;65.86;98509.16;10375286;28;20037;-78
2023/04/12 16:01:47;;;;;;;30.33;10.43;;;;;;;17.93;66.53;98597.50;10356097;28;20464;-76
2023/04/12 16:06:49;;;;;;;61.85;18.80;;;;;;;17.24;67.20;98530.34;10336318;28;20047;-75
2023/04/12 16:11:50;;;;;;;51.05;21.83;;;;;;;17.05;67.67;98537.94;10351520;28;20046;-81
2023/04/12 16:16:51;;;;;;;20.55;8.90;;;;;;;17.10;68.25;98588.97;10358092;28;20142;-81
2023/04/12 16:21:52;;;;;;;28.00;10.70;;;;;;;17.23;68.73;98615.41;10347389;28;20132;-76
2023/04/12 16:26:52;;;;;;;26.65;8.73;;;;;;;17.01;68.85;98607.41;10372639;28;20045;-78
2023/04/12 16:31:53;;;;;;;18.20;6.45;;;;;;;16.88;69.30;98621.22;10347919;28;20044;-78
2023/04/12 16:36:54;;;;;;;24.23;9.63;;;;;;;16.84;69.60;98620.91;10334125;28;20084;-77
2023/04/12 16:41:55;;;;;;;29.95;8.73;;;;;;;16.46;69.84;98576.19;10359242;28;20045;-76
2023/04/12 16:46:56;;;;;;;22.23;7.15;;;;;;;16.59;70.29;98609.84;10338592;28;20042;-76
2023/04/12 16:51:58;;;;;;;20.42;7.70;;;;;;;16.24;70.80;98568.13;10332126;28;20057;-76
2023/04/12 16:56:58;;;;;;;22.13;7.38;;;;;;;16.09;71.04;98551.84;10331857;28;20049;-76
2023/04/12 17:01:59;;;;;;;15.23;4.90;;;;;;;15.43;71.42;98453.47;10338535;28;20041;-74
2023/04/12 17:07:01;;;;;;;24.35;6.10;;;;;;;15.87;72.00;98533.88;10337237;28;20046;-80
2023/04/12 17:12:02;;;;;;;20.90;6.65;;;;;;;15.22;72.23;98436.31;10353526;28;20108;-76
2023/04/12 17:17:03;;;;;;;13.75;4.80;;;;;;;15.75;72.52;98514.44;10343472;28;20069;-79
2023/04/12 17:22:03;;;;;;;14.52;5.03;;;;;;;15.69;72.71;98499.38;10345714;28;20049;-81
2023/04/12 17:27:04;;;;;;;9.60;4.07;;;;;;;15.71;72.94;98507.97;10371709;28;20048;-79
2023/04/12 17:32:05;;;;;;;10.63;4.18;;;;;;;15.65;73.21;98527.66;10372107;28;20081;-77
2023/04/12 17:37:06;;;;;;;16.50;5.05;;;;;;;15.58;73.77;98543.88;10340624;28;20042;-79
2023/04/12 17:42:07;;;;;;;10.52;3.55;;;;;;;15.47;74.21;98604.47;10354854;28;20046;-82
2023/04/12 17:47:08;;;;;;;12.25;4.32;;;;;;;15.54;74.82;98657.81;10369679;28;20045;-83
2023/04/12 17:52:09;;;;;;;14.85;4.80;;;;;;;15.00;75.42;98590.53;10378737;28;20413;-82
2023/04/12 17:57:11;;;;;;;17.42;4.90;;;;;;;15.24;75.46;98644.72;10379604;28;20413;-80
2023/04/12 18:02:11;;;;;;;28.63;4.60;;;;;;;15.18;75.52;98626.94;10379382;28;20042;-80
2023/04/12 18:07:13;;;;;;;14.45;4.40;;;;;;;14.93;75.33;98581.84;10375603;28;22272;-84
2023/04/12 18:12:14;;;;;;;13.38;3.85;;;;;;;14.58;75.71;98538.16;10379337;28;20137;-77
2023/04/12 18:17:15;;;;;;;7.82;3.60;;;;;;;14.98;75.95;98590.75;10378745;28;20133;-79
2023/04/12 18:22:16;;;;;;;15.68;3.72;;;;;;;15.13;76.02;98632.19;10378940;28;20128;-82
2023/04/12 18:27:16;;;;;;;13.10;3.70;;;;;;;15.00;76.58;98619.94;10378243;28;20094;-84
2023/04/12 18:32:17;;;;;;;11.15;3.75;;;;;;;14.98;76.93;98635.41;10376612;28;20047;-83
2023/04/12 18:37:18;;;;;;;14.63;3.85;;;;;;;14.94;77.31;98610.19;10377966;28;20038;-80
2023/04/12 18:42:19;;;;;;;13.82;3.50;;;;;;;14.88;77.68;98622.66;10378644;28;20528;-80
2023/04/12 18:47:20;;;;;;;9.20;3.35;;;;;;;14.58;77.81;98582.78;10360827;28;20042;-80
2023/04/12 18:52:21;;;;;;;10.30;3.40;;;;;;;14.33;78.30;98561.69;10334633;28;20050;-80
2023/04/12 18:57:22;;;;;;;11.38;4.00;;;;;;;14.71;78.32;98613.75;10336846;28;20066;-79
2023/04/12 19:02:23;;;;;;;11.27;3.78;;;;;;;14.35;78.33;98551.56;10335468;28;20046;-80
2023/04/12 19:07:24;;;;;;;16.48;3.70;;;;;;;14.42;78.43;98565.59;10357510;28;20073;-81
2023/04/12 19:12:25;;;;;;;8.73;3.40;;;;;;;14.87;78.32;98610.34;10377364;28;20115;-81
2023/04/12 19:17:28;;;;;;;17.20;3.60;;;;;;;15.03;78.52;98596.19;10366521;28;20775;-81
2023/04/12 19:22:28;;;;;;;11.70;3.80;;;;;;;15.06;77.72;98585.03;10374559;28;20064;-81
2023/04/12 19:27:29;;;;;;;12.10;3.40;;;;;;;15.50;77.34;98617.34;10339243;28;20044;-80
2023/04/12 19:32:30;;;;;;;11.02;3.10;;;;;;;15.70;77.28;98638.34;10342129;28;20042;-80
2023/04/12 19:37:32;;;;;;;10.77;3.50;;;;;;;15.73;76.89;98626.31;10335469;28;20502;-80
2023/04/12 19:42:33;;;;;;;13.13;3.58;;;;;;;15.24;76.89;98540.38;10335548;28;20038;-80
2023/04/12 19:47:34;;;;;;;8.07;2.85;;;;;;;15.90;77.15;98639.69;10335227;28;20038;-80
2023/04/12 19:52:35;;;;;;;10.98;3.47;;;;;;;15.91;77.58;98644.81;10333485;28;20538;-80
2023/04/12 19:57:39;;;;;;;9.88;3.50;;;;;;;15.85;78.56;98624.34;10334530;28;20129;-81
2023/04/12 20:02:41;;;;;;;9.32;3.53;;;;;;;15.62;78.17;98568.31;10334552;28;20069;-82
2023/04/12 20:07:45;;;;;;;9.07;2.95;;;;;;;15.69;78.26;98555.59;10343464;28;20070;-81
2023/04/12 20:12:46;;;;;;;15.30;3.28;;;;;;;15.72;78.80;98563.13;10336692;28;20058;-81
2023/04/12 20:17:50;;;;;;;14.52;3.50;;;;;;;15.82;79.04;98582.00;10342143;28;20088;-82
2023/04/12 20:22:51;;;;;;;;;;;;;;;15.87;77.89;98560.66;10355165;28;20038;-81
2023/04/12 20:27:52;;;;;;;14.10;3.63;;;;;;;15.67;79.23;98557.66;10373304;28;20304;-83
2023/04/12 20:32:53;;;;;;;14.82;3.25;;;;;;;14.73;79.75;98389.81;10347617;28;20084;-80
2023/04/12 20:37:55;;;;;;;9.07;3.45;;;;;;;15.58;80.12;98527.00;10332780;28;20462;-82
2023/04/12 20:42:56;;;;;;;8.38;2.97;;;;;;;15.66;80.54;98554.16;10333686;28;20045;-80
2023/04/12 20:47:57;;;;;;;7.93;3.40;;;;;;;15.39;80.41;98500.50;10332754;28;20042;-81
2023/04/12 20:52:58;;;;;;;11.00;3.45;;;;;;;15.09;80.62;98483.97;10333191;28;20573;-83
2023/04/12 20:58:00;;;;;;;14.20;3.95;;;;;;;15.17;80.88;98487.06;10337787;28;20034;-81
2023/04/12 21:03:03;;;;;;;8.60;3.38;;;;;;;15.33;81.16;98506.84;10337402;28;20042;-81
2023/04/12 21:08:06;;;;;;;12.20;3.50;;;;;;;15.39;81.29;98535.28;10332349;28;20051;-79
2023/04/12 21:13:07;;;;;;;10.68;3.78;;;;;;;15.42;81.60;98548.19;10331521;28;20427;-81
2023/04/12 21:18:08;;;;;;;7.43;3.15;;;;;;;14.95;81.71;98465.56;10332579;28;20148;-79
2023/04/12 21:23:10;;;;;;;8.60;3.47;;;;;;;15.60;81.77;98557.03;10332115;28;20538;-77
2023/04/12 21:28:11;;;;;;;8.63;3.30;;;;;;;15.16;82.00;98480.06;10331203;28;20045;-80
2023/04/12 21:33:12;;;;;;;12.35;3.50;;;;;;;15.44;82.38;98519.31;10331800;28;20042;-78
2023/04/12 21:38:13;;;;;;;9.85;3.63;;;;;;;15.54;82.57;98548.09;10346517;28;20512;-79
2023/04/12 21:43:17;;;;;;;10.73;3.42;;;;;;;15.58;83.46;98559.13;10372561;28;20049;-78
2023/04/12 21:48:18;;;;;;;27.42;4.50;;;;;;;15.47;82.64;98523.38;10370548;28;20080;-79
2023/04/12 21:53:19;;;;;;;11.90;3.50;;;;;;;15.62;82.67;98547.69;10370081;28;20574;-76
2023/04/12 21:58:20;;;;;;;12.65;4.30;;;;;;;15.55;82.71;98548.91;10372226;28;20077;-80
2023/04/12 22:03:23;;;;;;;10.60;3.50;;;;;;;15.62;83.08;98552.25;10355373;28;20034;-80
2023/04/12 22:08:24;;;;;;;14.13;3.97;;;;;;;15.61;82.59;98537.22;10331040;28;20058;-79
2023/04/12 22:13:25;;;;;;;13.45;4.45;;;;;;;15.49;82.55;98542.66;10330819;28;20515;-79
2023/04/12 22:18:26;;;;;;;14.05;4.30;;;;;;;15.43;82.77;98533.72;10330635;28;20046;-80
2023/04/12 22:23:27;;;;;;;12.63;4.70;;;;;;;15.48;83.11;98541.03;10332172;28;20100;-82
2023/04/12 22:28:29;;;;;;;12.07;4.63;;;;;;;15.44;83.37;98548.75;10337874;28;20049;-78
2023/04/12 22:33:30;;;;;;;10.07;3.88;;;;;;;14.92;83.50;98462.56;10368226;28;20132;-79
2023/04/12 22:38:34;;;;;;;16.00;4.75;;;;;;;15.05;84.10;98480.97;10375025;28;20038;-80
2023/04/12 22:43:41;;;;;;;12.55;4.65;;;;;;;15.31;83.91;98533.00;10345853;28;20057;-79
2023/04/12 22:48:46;;;;;;;14.65;4.53;;;;;;;15.00;84.28;98481.69;10336574;28;20124;-77
2023/04/12 22:53:49;;;;;;;11.48;4.80;;;;;;;15.27;84.16;98511.28;10337152;28;20129;-81
2023/04/12 22:58:49;;;;;;;16.85;4.97;;;;;;;15.25;84.32;98524.09;10337948;28;20137;-79
2023/04/12 23:03:50;;;;;;;13.68;4.82;;;;;;;15.13;84.76;98554.63;10336103;28;20128;-80
2023/04/12 23:08:51;;;;;;;10.18;4.65;;;;;;;14.51;85.03;98430.63;10335146;28;20050;-79
2023/04/12 23:13:53;;;;;;;15.57;5.10;;;;;;;15.04;85.97;98506.09;10337264;28;20043;-78